Time;durP1;ratioP1;P1;durP2;ratioP2;P2;SDS_P1;SDS_P2;PMS_P1;PMS_P2;Temp;Humidity;BMP_temperature;BMP_pressure;BME280_temperature;BME280_humidity;BME280_pressure;Samples;Min_cycle;Max_cycle;Signal;HPM_P1;HPM_P2
2024/03/08 00:00:09;;;;;;;46.00;16.05;;;;;;;-141.50;100.00;63355.56;5016742;28;20042;-82
2024/03/08 00:02:37;;;;;;;38.75;14.82;;;;;;;-141.50;100.00;63355.56;5022461;28;20102;-79
2024/03/08 00:05:05;;;;;;;38.28;14.85;;;;;;;-141.50;100.00;63355.56;5012679;28;20065;-81
2024/03/08 00:07:32;;;;;;;40.65;16.05;;;;;;;-141.50;100.00;63355.56;4993188;28;20049;-81
2024/03/08 00:09:59;;;;;;;42.10;15.27;;;;;;;-141.50;100.00;63355.56;5010355;28;20060;-80
2024/03/08 00:12:26;;;;;;;37.25;14.93;;;;;;;-141.50;100.00;63355.56;5011975;28;20050;-81
2024/03/08 00:14:54;;;;;;;36.80;15.32;;;;;;;-141.50;100.00;63355.56;5009323;28;20049;-82
2024/03/08 00:17:25;;;;;;;36.25;15.63;;;;;;;-141.50;100.00;63355.56;4994377;28;20099;-80
2024/03/08 00:19:51;;;;;;;39.70;15.25;;;;;;;-141.50;100.00;63355.56;5008853;28;20510;-81
2024/03/08 00:22:18;;;;;;;37.60;15.57;;;;;;;-141.50;100.00;63355.56;5011139;28;20149;-82
2024/03/08 00:24:45;;;;;;;39.65;16.23;;;;;;;-141.50;100.00;63355.56;5009548;28;20050;-79
2024/03/08 00:27:12;;;;;;;36.78;15.93;;;;;;;-141.50;100.00;63355.56;4985056;28;20597;-81
2024/03/08 00:29:39;;;;;;;41.38;16.30;;;;;;;-141.50;100.00;63355.56;4992308;28;20636;-83
2024/03/08 00:32:07;;;;;;;46.00;16.48;;;;;;;-141.50;100.00;63355.56;5010034;28;20500;-79
2024/03/08 00:34:37;;;;;;;39.70;16.05;;;;;;;-141.50;100.00;63355.56;5011104;28;20050;-80
2024/03/08 00:37:05;;;;;;;42.65;15.93;;;;;;;-141.50;100.00;63355.56;4993622;28;20065;-80
2024/03/08 00:39:31;;;;;;;41.05;16.45;;;;;;;-141.50;100.00;63355.56;4993218;28;20053;-80
2024/03/08 00:42:01;;;;;;;38.42;16.48;;;;;;;-141.50;100.00;63355.56;5009972;28;20084;-81
2024/03/08 00:44:28;;;;;;;45.35;16.05;;;;;;;-141.50;100.00;63355.56;4994141;28;20077;-81
2024/03/08 00:46:56;;;;;;;40.65;15.77;;;;;;;-141.50;100.00;63355.56;5010920;28;20042;-82
2024/03/08 00:49:23;;;;;;;41.58;15.82;;;;;;;-141.50;100.00;63355.56;5012440;28;20108;-80
2024/03/08 00:51:49;;;;;;;33.17;14.75;;;;;;;-141.50;100.00;63355.56;4976694;28;20053;-81
2024/03/08 00:54:17;;;;;;;40.05;16.15;;;;;;;-141.50;100.00;63355.56;4993891;28;20065;-79
2024/03/08 00:56:44;;;;;;;37.17;15.38;;;;;;;-141.50;100.00;63355.56;4997762;28;20058;-79
2024/03/08 00:59:11;;;;;;;39.33;15.30;;;;;;;-141.50;100.00;63355.56;5008610;28;20058;-82
2024/03/08 01:01:37;;;;;;;36.30;15.32;;;;;;;-141.50;100.00;63355.56;5010134;28;20069;-80
2024/03/08 01:04:04;;;;;;;37.00;15.73;;;;;;;-141.50;100.00;63355.56;4992262;28;20117;-80
2024/03/08 01:06:31;;;;;;;39.47;16.45;;;;;;;-141.50;100.00;63355.56;5010915;28;20065;-79
2024/03/08 01:08:58;;;;;;;39.15;16.77;;;;;;;-141.50;100.00;63355.56;5005419;28;20467;-80
2024/03/08 01:11:25;;;;;;;35.45;15.80;;;;;;;-141.50;100.00;63355.56;5011751;28;20149;-80
2024/03/08 01:13:53;;;;;;;39.47;15.77;;;;;;;-141.50;100.00;63355.56;4995028;28;20504;-82
2024/03/08 01:16:21;;;;;;;37.47;14.63;;;;;;;-141.50;100.00;63355.56;4988044;28;20420;-81
2024/03/08 01:18:48;;;;;;;42.95;15.85;;;;;;;-141.50;100.00;63355.56;5016930;28;20073;-78
2024/03/08 01:21:17;;;;;;;41.10;15.10;;;;;;;-141.50;100.00;63355.56;5007367;28;20061;-81
2024/03/08 01:23:44;;;;;;;41.95;15.48;;;;;;;-141.50;100.00;63355.56;5019517;28;20089;-82
2024/03/08 01:26:11;;;;;;;38.13;15.70;;;;;;;-141.50;100.00;63355.56;4999981;28;20062;-82
2024/03/08 01:28:38;;;;;;;38.35;15.07;;;;;;;-141.50;100.00;63355.56;5017698;28;20080;-81
2024/03/08 01:31:05;;;;;;;38.00;15.40;;;;;;;-141.50;100.00;63355.56;5015604;28;20057;-79
2024/03/08 01:33:32;;;;;;;40.15;15.85;;;;;;;-141.50;100.00;63355.56;5001363;28;20073;-81
2024/03/08 01:35:59;;;;;;;39.97;15.68;;;;;;;-141.50;100.00;63355.56;4998586;28;20136;-79
2024/03/08 01:38:27;;;;;;;41.38;16.58;;;;;;;-141.50;100.00;63355.56;4982437;28;20063;-82
2024/03/08 01:40:54;;;;;;;37.22;15.55;;;;;;;-141.50;100.00;63355.56;5011427;28;20064;-80
2024/03/08 01:43:24;;;;;;;39.33;15.73;;;;;;;-141.50;100.00;63355.56;5016085;28;20203;-80
2024/03/08 01:45:51;;;;;;;37.83;16.33;;;;;;;-141.50;100.00;63355.56;5013480;28;20053;-82
2024/03/08 01:48:24;;;;;;;38.75;15.85;;;;;;;-141.50;100.00;63355.56;5008337;28;20073;-81
2024/03/08 01:50:52;;;;;;;40.63;15.90;;;;;;;-141.50;100.00;63355.56;5009461;28;20523;-82
2024/03/08 01:53:19;;;;;;;39.42;15.27;;;;;;;-141.50;100.00;63355.56;4995916;28;20573;-83
2024/03/08 01:55:49;;;;;;;38.40;16.30;;;;;;;-141.50;100.00;63355.56;5016489;28;20050;-77
2024/03/08 01:58:21;;;;;;;40.78;15.85;;;;;;;-141.50;100.00;63355.56;4995445;28;20076;-80
2024/03/08 02:00:49;;;;;;;35.60;14.77;;;;;;;-141.50;100.00;63355.56;5010245;28;20112;-79
2024/03/08 02:03:17;;;;;;;40.05;15.52;;;;;;;-141.50;100.00;63355.56;4994520;28;20064;-84
2024/03/08 02:05:43;;;;;;;38.72;15.63;;;;;;;-141.50;100.00;63355.56;4993594;28;20062;-81
2024/03/08 02:08:14;;;;;;;41.67;15.55;;;;;;;-141.50;100.00;63355.56;5010298;28;20058;-80
2024/03/08 02:10:41;;;;;;;39.45;15.48;;;;;;;-141.50;100.00;63355.56;4991279;28;20058;-80
2024/03/08 02:13:09;;;;;;;40.85;15.77;;;;;;;-141.50;100.00;63355.56;5011729;28;20054;-81
2024/03/08 02:15:55;;;;;;;37.38;15.88;;;;;;;-141.50;100.00;63355.56;4993957;28;20112;-84
2024/03/08 02:18:23;;;;;;;42.97;15.43;;;;;;;-141.50;100.00;63355.56;5005190;28;20050;-83
2024/03/08 02:21:04;;;;;;;40.58;15.88;;;;;;;-141.50;100.00;63355.56;5006206;28;20060;-81
2024/03/08 02:23:32;;;;;;;37.28;15.65;;;;;;;-141.50;100.00;63355.56;5009245;28;20089;-80
2024/03/08 02:25:59;;;;;;;42.05;15.70;;;;;;;-141.50;100.00;63355.56;5008940;28;20138;-83
2024/03/08 02:28:27;;;;;;;37.67;16.02;;;;;;;-141.50;100.00;63355.56;4975188;28;20077;-79
2024/03/08 02:30:55;;;;;;;39.63;14.80;;;;;;;-141.50;100.00;63355.56;4976158;28;20519;-82
2024/03/08 02:33:23;;;;;;;38.45;15.73;;;;;;;-141.50;100.00;63355.56;5007408;28;20061;-81
2024/03/08 02:35:53;;;;;;;41.78;16.15;;;;;;;-141.50;100.00;63355.56;4988716;28;20049;-82
2024/03/08 02:38:22;;;;;;;43.90;16.00;;;;;;;-141.50;100.00;63355.56;4980650;28;20052;-80
2024/03/08 02:40:51;;;;;;;42.90;16.42;;;;;;;-141.50;100.00;63355.56;5004945;28;20061;-81
2024/03/08 02:43:20;;;;;;;38.03;15.63;;;;;;;-141.50;100.00;63355.56;5008063;28;20061;-82
2024/03/08 02:45:47;;;;;;;38.45;15.55;;;;;;;-141.50;100.00;63355.56;5007911;28;20057;-83
2024/03/08 02:48:16;;;;;;;40.10;15.93;;;;;;;-141.50;100.00;63355.56;4990744;28;20045;-79
2024/03/08 02:50:44;;;;;;;42.25;16.35;;;;;;;-141.50;100.00;63355.56;5008523;28;20072;-80
2024/03/08 02:53:13;;;;;;;36.97;15.13;;;;;;;-141.50;100.00;63355.56;5016665;28;20054;-80
2024/03/08 02:55:41;;;;;;;39.60;15.38;;;;;;;-141.50;100.00;63355.56;5011913;28;20468;-81
2024/03/08 02:58:10;;;;;;;42.97;16.55;;;;;;;-141.50;100.00;63355.56;4992456;28;20042;-79
2024/03/08 03:00:41;;;;;;;39.80;16.42;;;;;;;-141.50;100.00;63355.56;4989744;28;20111;-79
2024/03/08 03:03:08;;;;;;;42.35;16.55;;;;;;;-141.50;100.00;63355.56;4992446;28;20096;-78
2024/03/08 03:05:35;;;;;;;42.80;17.60;;;;;;;-141.50;100.00;63355.56;5007067;28;20060;-81
2024/03/08 03:08:08;;;;;;;39.58;16.13;;;;;;;-141.50;100.00;63355.56;4990093;28;20097;-80
2024/03/08 03:10:36;;;;;;;45.55;16.85;;;;;;;-141.50;100.00;63355.56;5008153;28;20056;-82
2024/03/08 03:13:04;;;;;;;41.03;16.27;;;;;;;-141.50;100.00;63355.56;5008875;28;20493;-81
2024/03/08 03:15:31;;;;;;;40.90;16.25;;;;;;;-141.50;100.00;63355.56;5008253;28;20424;-80
2024/03/08 03:17:58;;;;;;;49.88;16.85;;;;;;;-141.50;100.00;63355.56;5000120;28;20518;-79
2024/03/08 03:20:44;;;;;;;39.13;15.98;;;;;;;-141.50;100.00;63355.56;5007889;28;20054;-79
2024/03/08 03:23:14;;;;;;;43.28;16.95;;;;;;;-141.50;100.00;63355.56;5008825;28;20099;-80
2024/03/08 03:25:42;;;;;;;37.60;15.63;;;;;;;-141.50;100.00;63355.56;5007192;28;20058;-80
2024/03/08 03:28:10;;;;;;;42.95;16.25;;;;;;;-141.50;100.00;63355.56;4992533;28;20052;-81
2024/03/08 03:30:39;;;;;;;44.22;15.93;;;;;;;-141.50;100.00;63355.56;4991742;28;20064;-80
2024/03/08 03:33:09;;;;;;;45.55;16.70;;;;;;;-141.50;100.00;63355.56;5001191;28;20046;-82
2024/03/08 03:35:36;;;;;;;40.50;16.50;;;;;;;-141.50;100.00;63355.56;5013269;28;20065;-81
2024/03/08 03:38:07;;;;;;;44.50;17.13;;;;;;;-141.50;100.00;63355.56;4997034;28;20053;-80
2024/03/08 03:40:37;;;;;;;46.65;17.38;;;;;;;-141.50;100.00;63355.56;4995617;28;20104;-78
2024/03/08 03:43:10;;;;;;;40.78;16.25;;;;;;;-141.50;100.00;63355.56;5014466;28;20046;-79
2024/03/08 03:45:39;;;;;;;42.28;16.27;;;;;;;-141.50;100.00;63355.56;5023666;28;20053;-80
2024/03/08 03:48:08;;;;;;;42.97;17.13;;;;;;;-141.50;100.00;63355.56;5014494;28;20053;-80
2024/03/08 03:50:36;;;;;;;40.17;16.10;;;;;;;-141.50;100.00;63355.56;5016894;28;20074;-79
2024/03/08 03:53:07;;;;;;;40.50;16.50;;;;;;;-141.50;100.00;63355.56;4999214;28;20041;-79
2024/03/08 03:55:38;;;;;;;43.63;16.98;;;;;;;-141.50;100.00;63355.56;4996032;28;20050;-81
2024/03/08 03:58:06;;;;;;;39.30;16.70;;;;;;;-141.50;100.00;63355.56;4993238;28;20046;-80
2024/03/08 04:00:32;;;;;;;47.13;16.40;;;;;;;-141.50;100.00;63355.56;5011923;28;20128;-80
2024/03/08 04:03:00;;;;;;;45.67;16.85;;;;;;;-141.50;100.00;63355.56;4992618;28;20065;-80
2024/03/08 04:05:31;;;;;;;51.78;18.20;;;;;;;-141.50;100.00;63355.56;5019648;28;20669;-80
2024/03/08 04:07:58;;;;;;;48.10;17.63;;;;;;;-141.50;100.00;63355.56;5018067;28;20052;-80
2024/03/08 04:10:25;;;;;;;45.70;16.85;;;;;;;-141.50;100.00;63355.56;5021415;28;20049;-77
2024/03/08 04:12:52;;;;;;;43.58;16.80;;;;;;;-141.50;100.00;63355.56;5016568;28;20066;-82
2024/03/08 04:15:19;;;;;;;44.22;16.77;;;;;;;-141.50;100.00;63355.56;5013436;28;20589;-80
2024/03/08 04:17:46;;;;;;;46.03;17.50;;;;;;;-141.50;100.00;63355.56;4982977;28;20062;-78
2024/03/08 04:20:14;;;;;;;42.15;16.40;;;;;;;-141.50;100.00;63355.56;5011015;28;20448;-79
2024/03/08 04:22:42;;;;;;;43.90;16.85;;;;;;;-141.50;100.00;63355.56;5009709;28;20046;-81
2024/03/08 04:25:09;;;;;;;43.70;17.17;;;;;;;-141.50;100.00;63355.56;4993287;28;20050;-80
2024/03/08 04:27:36;;;;;;;41.28;17.50;;;;;;;-141.50;100.00;63355.56;5011407;28;20081;-81
2024/03/08 04:30:03;;;;;;;45.55;17.15;;;;;;;-141.50;100.00;63355.56;5010246;28;20797;-80
2024/03/08 04:32:32;;;;;;;45.58;16.70;;;;;;;-141.50;100.00;63355.56;5006520;28;20547;-79
2024/03/08 04:35:01;;;;;;;53.63;16.95;;;;;;;-141.50;100.00;63355.56;5011178;28;20058;-78
2024/03/08 04:37:31;;;;;;;44.78;16.42;;;;;;;-141.50;100.00;63355.56;5011209;28;20045;-81
2024/03/08 04:39:58;;;;;;;42.15;16.65;;;;;;;-141.50;100.00;63355.56;5012129;28;20631;-81
2024/03/08 04:42:26;;;;;;;45.40;16.35;;;;;;;-141.50;100.00;63355.56;4994141;28;20061;-80
2024/03/08 04:44:53;;;;;;;42.28;17.02;;;;;;;-141.50;100.00;63355.56;5006743;28;20241;-80
2024/03/08 04:47:20;;;;;;;43.28;16.92;;;;;;;-141.50;100.00;63355.56;5015944;28;20049;-82
2024/03/08 04:49:47;;;;;;;43.53;16.02;;;;;;;-141.50;100.00;63355.56;5008027;28;20049;-81
2024/03/08 04:52:14;;;;;;;45.97;17.00;;;;;;;-141.50;100.00;63355.56;4987234;28;20112;-80
2024/03/08 04:54:40;;;;;;;40.13;16.08;;;;;;;-141.50;100.00;63355.56;5007842;28;20080;-82
2024/03/08 04:57:07;;;;;;;42.30;15.82;;;;;;;-141.50;100.00;63355.56;5008570;28;20409;-79
2024/03/08 04:59:35;;;;;;;40.33;15.77;;;;;;;-141.50;100.00;63355.56;5007661;28;20145;-78
2024/03/08 05:02:03;;;;;;;44.22;16.73;;;;;;;-141.50;100.00;63355.56;4990775;28;20497;-82
2024/03/08 05:04:30;;;;;;;46.78;16.55;;;;;;;-141.50;100.00;63355.56;4989602;28;20058;-80
2024/03/08 05:06:57;;;;;;;42.20;16.98;;;;;;;-141.50;100.00;63355.56;4990296;28;20687;-81
2024/03/08 05:09:23;;;;;;;37.45;15.85;;;;;;;-141.50;100.00;63355.56;5014295;28;20530;-79
2024/03/08 05:11:50;;;;;;;43.78;16.67;;;;;;;-141.50;100.00;63355.56;5006540;28;20065;-80
2024/03/08 05:14:19;;;;;;;46.53;16.92;;;;;;;-141.50;100.00;63355.56;5007235;28;20056;-80
2024/03/08 05:16:49;;;;;;;39.60;16.02;;;;;;;-141.50;100.00;63355.56;5007046;28;20050;-80
2024/03/08 05:19:18;;;;;;;49.65;17.15;;;;;;;-141.50;100.00;63355.56;5003568;28;20140;-80
2024/03/08 05:21:49;;;;;;;50.75;17.77;;;;;;;-141.50;100.00;63355.56;4985162;28;20420;-81
2024/03/08 05:24:16;;;;;;;50.97;17.73;;;;;;;-141.50;100.00;63355.56;4990574;28;20050;-79
2024/03/08 05:26:45;;;;;;;47.80;17.60;;;;;;;-141.50;100.00;63355.56;5005409;28;20175;-79
2024/03/08 05:29:13;;;;;;;41.47;16.67;;;;;;;-141.50;100.00;63355.56;5007652;28;20121;-79
2024/03/08 05:31:46;;;;;;;46.65;17.67;;;;;;;-141.50;100.00;63355.56;5006466;28;20050;-79
2024/03/08 05:34:14;;;;;;;52.58;17.13;;;;;;;-141.50;100.00;63355.56;5004784;28;20180;-80
2024/03/08 05:36:44;;;;;;;46.40;17.15;;;;;;;-141.50;100.00;63355.56;5002941;28;20061;-81
2024/03/08 05:39:14;;;;;;;51.53;18.50;;;;;;;-141.50;100.00;63355.56;4996161;28;20118;-79
2024/03/08 05:41:41;;;;;;;47.40;17.45;;;;;;;-141.50;100.00;63355.56;5006458;28;20066;-80
2024/03/08 05:44:09;;;;;;;49.15;18.13;;;;;;;-141.50;100.00;63355.56;5010757;28;20554;-80
2024/03/08 05:46:37;;;;;;;44.80;16.70;;;;;;;-141.50;100.00;63355.56;5010901;28;20578;-81
2024/03/08 05:49:05;;;;;;;54.08;18.65;;;;;;;-141.50;100.00;63355.56;4997814;28;20080;-81
2024/03/08 05:51:37;;;;;;;41.65;17.45;;;;;;;-141.50;100.00;63355.56;5011767;28;20056;-81
2024/03/08 05:54:06;;;;;;;43.70;18.40;;;;;;;-141.50;100.00;63355.56;4986317;28;20106;-81
2024/03/08 05:56:33;;;;;;;53.83;18.15;;;;;;;-141.50;100.00;63355.56;4989407;28;20692;-81
2024/03/08 05:59:00;;;;;;;48.67;18.40;;;;;;;-141.50;100.00;63355.56;4973946;28;20053;-79
2024/03/08 06:01:30;;;;;;;50.67;17.67;;;;;;;-141.50;100.00;63355.56;4989681;28;20519;-78
2024/03/08 06:03:57;;;;;;;52.55;18.50;;;;;;;-141.50;100.00;63355.56;4989569;28;20058;-80
2024/03/08 06:06:24;;;;;;;42.03;17.08;;;;;;;-141.50;100.00;63355.56;4987539;28;20050;-82
2024/03/08 06:08:52;;;;;;;44.20;16.67;;;;;;;-141.50;100.00;63355.56;5005668;28;20076;-78
2024/03/08 06:11:23;;;;;;;46.53;17.42;;;;;;;-141.50;100.00;63355.56;4991061;28;20118;-80
2024/03/08 06:13:50;;;;;;;51.13;18.38;;;;;;;-141.50;100.00;63355.56;5006333;28;20050;-81
2024/03/08 06:16:16;;;;;;;48.28;18.05;;;;;;;-141.50;100.00;63355.56;5012250;28;20045;-80
2024/03/08 06:18:43;;;;;;;47.10;18.45;;;;;;;-141.50;100.00;63355.56;5010952;28;20065;-81
2024/03/08 06:21:11;;;;;;;51.53;19.05;;;;;;;-141.50;100.00;63355.56;5019314;28;20042;-79
2024/03/08 06:23:39;;;;;;;58.40;19.67;;;;;;;-141.50;100.00;63355.56;5011565;28;20459;-82
2024/03/08 06:26:06;;;;;;;51.85;17.40;;;;;;;-141.50;100.00;63355.56;5009045;28;20042;-81
2024/03/08 06:28:34;;;;;;;58.00;18.63;;;;;;;-141.50;100.00;63355.56;5007583;28;20050;-79
2024/03/08 06:31:02;;;;;;;45.70;17.27;;;;;;;-141.50;100.00;63355.56;5001223;28;20092;-80
2024/03/08 06:33:30;;;;;;;49.92;17.70;;;;;;;-141.50;100.00;63355.56;4990273;28;20125;-80
2024/03/08 06:35:57;;;;;;;75.75;25.80;;;;;;;-141.50;100.00;63355.56;5005170;28;20057;-79
2024/03/08 06:38:24;;;;;;;71.03;22.90;;;;;;;-141.50;100.00;63355.56;4990143;28;20141;-78
2024/03/08 06:40:52;;;;;;;60.03;21.88;;;;;;;-141.50;100.00;63355.56;4987441;28;20042;-79
2024/03/08 06:43:19;;;;;;;52.78;20.92;;;;;;;-141.50;100.00;63355.56;4994073;28;20077;-80
2024/03/08 06:45:48;;;;;;;53.95;19.02;;;;;;;-141.50;100.00;63355.56;5001469;28;20141;-79
2024/03/08 06:48:19;;;;;;;59.33;18.85;;;;;;;-141.50;100.00;63355.56;5006154;28;20527;-79
2024/03/08 06:50:47;;;;;;;50.40;19.15;;;;;;;-141.50;100.00;63355.56;5004737;28;20073;-79
2024/03/08 06:53:14;;;;;;;53.60;20.20;;;;;;;-141.50;100.00;63355.56;4988553;28;20070;-79
2024/03/08 06:55:44;;;;;;;54.55;20.40;;;;;;;-141.50;100.00;63355.56;5005190;28;20133;-82
2024/03/08 06:58:11;;;;;;;52.97;19.55;;;;;;;-141.50;100.00;63355.56;4989537;28;20046;-79
2024/03/08 07:00:38;;;;;;;54.47;20.02;;;;;;;-141.50;100.00;63355.56;5003683;28;20056;-80
2024/03/08 07:03:12;;;;;;;50.30;19.10;;;;;;;-141.50;100.00;63355.56;4984303;28;20073;-80
2024/03/08 07:05:40;;;;;;;55.50;20.27;;;;;;;-141.50;100.00;63355.56;4984896;28;20050;-80
2024/03/08 07:08:07;;;;;;;55.38;19.52;;;;;;;-141.50;100.00;63355.56;5006364;28;20041;-81
2024/03/08 07:10:35;;;;;;;59.95;21.63;;;;;;;-141.50;100.00;63355.56;5011256;28;20473;-79
2024/03/08 07:13:02;;;;;;;50.17;19.48;;;;;;;-141.50;100.00;63355.56;5002925;28;20038;-78
2024/03/08 07:15:29;;;;;;;57.60;21.35;;;;;;;-141.50;100.00;63355.56;4993888;28;20046;-81
2024/03/08 07:17:55;;;;;;;54.15;20.27;;;;;;;-141.50;100.00;63355.56;4999921;28;21176;-78
2024/03/08 07:20:22;;;;;;;47.35;20.58;;;;;;;-141.50;100.00;63355.56;4992955;28;20144;-79
2024/03/08 07:22:52;;;;;;;59.53;21.20;;;;;;;-141.50;100.00;63355.56;4991840;28;20155;-79
2024/03/08 07:25:20;;;;;;;58.28;19.25;;;;;;;-141.50;100.00;63355.56;4977574;28;20545;-79
2024/03/08 07:27:48;;;;;;;51.35;18.92;;;;;;;-141.50;100.00;63355.56;5008669;28;20050;-80
2024/03/08 07:33:02;;;;;;;51.85;19.90;;;;;;;-141.50;100.00;63355.56;5010976;28;20042;-81
2024/03/08 07:35:29;;;;;;;54.70;20.73;;;;;;;-141.50;100.00;63355.56;5013362;28;20049;-79
2024/03/08 07:37:56;;;;;;;50.08;19.38;;;;;;;-141.50;100.00;63355.56;5013266;28;20045;-81
2024/03/08 07:40:23;;;;;;;55.53;20.77;;;;;;;-141.50;100.00;63355.56;5009063;28;20126;-80
2024/03/08 07:42:51;;;;;;;51.85;20.88;;;;;;;-141.50;100.00;63355.56;5018288;28;20050;-81
2024/03/08 07:45:18;;;;;;;51.88;19.60;;;;;;;-141.50;100.00;63355.56;5003885;28;20060;-80
2024/03/08 07:47:45;;;;;;;50.95;19.58;;;;;;;-141.50;100.00;63355.56;4998902;28;20056;-81
2024/03/08 07:50:16;;;;;;;53.00;19.42;;;;;;;-141.50;100.00;63355.56;4997514;28;20050;-81
2024/03/08 07:52:43;;;;;;;47.60;18.73;;;;;;;-141.50;100.00;63355.56;4993982;28;20081;-83
2024/03/08 07:55:10;;;;;;;52.45;19.08;;;;;;;-141.50;100.00;63355.56;5010946;28;20084;-79
2024/03/08 07:57:40;;;;;;;47.60;18.73;;;;;;;-141.50;100.00;63355.56;5009298;28;20085;-79
2024/03/08 08:00:07;;;;;;;49.97;18.80;;;;;;;-141.50;100.00;63355.56;5015981;28;20065;-81
2024/03/08 08:02:35;;;;;;;46.55;19.40;;;;;;;-141.50;100.00;63355.56;5013996;28;20062;-80
2024/03/08 08:05:06;;;;;;;52.33;20.13;;;;;;;-141.50;100.00;63355.56;4999797;28;20058;-81
2024/03/08 08:07:33;;;;;;;51.33;18.92;;;;;;;-141.50;100.00;63355.56;5014247;28;20433;-80
2024/03/08 08:10:00;;;;;;;48.78;19.73;;;;;;;-141.50;100.00;63355.56;5024994;28;20069;-80
2024/03/08 08:12:28;;;;;;;51.03;19.58;;;;;;;-141.50;100.00;63355.56;5026566;28;20085;-79
2024/03/08 08:14:56;;;;;;;51.00;18.88;;;;;;;-141.50;100.00;63355.56;5020595;28;20053;-79
2024/03/08 08:17:23;;;;;;;49.13;19.45;;;;;;;-141.50;100.00;63355.56;5028786;28;20061;-81
2024/03/08 08:19:49;;;;;;;46.35;18.52;;;;;;;-141.50;100.00;63355.56;4990364;28;20057;-80
2024/03/08 08:22:18;;;;;;;49.95;19.13;;;;;;;-141.50;100.00;63355.56;5016542;28;20267;-79
2024/03/08 08:24:45;;;;;;;48.70;18.38;;;;;;;-141.50;100.00;63355.56;5016238;28;20057;-81
2024/03/08 08:27:14;;;;;;;48.80;18.45;;;;;;;-141.50;100.00;63355.56;5019046;28;20054;-79
2024/03/08 08:29:41;;;;;;;49.70;18.88;;;;;;;-141.50;100.00;63355.56;4983727;28;20062;-83
2024/03/08 08:32:07;;;;;;;45.80;18.33;;;;;;;-141.50;100.00;63355.56;5001713;28;20540;-81
2024/03/08 08:34:34;;;;;;;44.80;17.48;;;;;;;-141.50;100.00;63355.56;5026324;28;20062;-80
2024/03/08 08:37:01;;;;;;;43.70;17.42;;;;;;;-141.50;100.00;63355.56;5004337;28;20050;-81
2024/03/08 08:39:28;;;;;;;44.85;18.02;;;;;;;-141.50;100.00;63355.56;5025590;28;20068;-78
2024/03/08 08:41:56;;;;;;;42.35;16.42;;;;;;;-141.50;100.00;63355.56;5010878;28;20058;-81
2024/03/08 08:44:23;;;;;;;42.05;17.33;;;;;;;-141.50;100.00;63355.56;5006647;28;20069;-80
2024/03/08 08:46:49;;;;;;;45.97;17.33;;;;;;;-141.50;100.00;63355.56;5020521;28;20054;-78
2024/03/08 08:49:20;;;;;;;38.80;16.00;;;;;;;-141.50;100.00;63355.56;5005247;28;20058;-80
2024/03/08 08:51:50;;;;;;;40.75;16.52;;;;;;;-141.50;100.00;63355.56;5024963;28;20062;-81
2024/03/08 08:54:20;;;;;;;35.97;14.45;;;;;;;-141.50;100.00;63355.56;5008113;28;20132;-81
2024/03/08 08:56:47;;;;;;;42.53;16.90;;;;;;;-141.50;100.00;63355.56;5023807;28;20065;-81
2024/03/08 08:59:14;;;;;;;36.95;15.40;;;;;;;-141.50;100.00;63355.56;4999693;28;20062;-82
2024/03/08 09:01:40;;;;;;;34.53;15.45;;;;;;;-141.50;100.00;63355.56;5014161;28;20053;-77
2024/03/08 09:04:08;;;;;;;43.88;15.15;;;;;;;-141.50;100.00;63355.56;5009054;28;20108;-81
2024/03/08 09:06:35;;;;;;;38.55;15.73;;;;;;;-141.50;100.00;63355.56;4995016;28;20535;-79
2024/03/08 09:09:03;;;;;;;39.20;15.18;;;;;;;-141.50;100.00;63355.56;5008522;28;20061;-79
2024/03/08 09:11:32;;;;;;;42.13;15.40;;;;;;;-141.50;100.00;63355.56;4991593;28;20129;-79
2024/03/08 09:13:59;;;;;;;35.63;14.95;;;;;;;-141.50;100.00;63355.56;5015737;28;20211;-78
2024/03/08 09:16:26;;;;;;;34.78;15.60;;;;;;;-141.50;100.00;63355.56;5002679;28;20108;-81
2024/03/08 09:18:53;;;;;;;39.85;16.40;;;;;;;-141.50;100.00;63355.56;5019356;28;20056;-78
2024/03/08 09:21:20;;;;;;;39.30;15.07;;;;;;;-141.50;100.00;63355.56;5003966;28;20054;-80
2024/03/08 09:23:49;;;;;;;40.38;15.98;;;;;;;-141.50;100.00;63355.56;5017240;28;20727;-80
2024/03/08 09:26:17;;;;;;;40.20;15.35;;;;;;;-141.50;100.00;63355.56;5011275;28;20108;-81
2024/03/08 09:28:54;;;;;;;32.75;14.52;;;;;;;-141.50;100.00;63355.56;4993592;28;20136;-81
2024/03/08 09:31:22;;;;;;;32.65;14.35;;;;;;;-141.50;100.00;63355.56;5012190;28;20068;-79
2024/03/08 09:33:49;;;;;;;38.97;14.02;;;;;;;-141.50;100.00;63355.56;5008620;28;20062;-81
2024/03/08 09:36:15;;;;;;;33.28;14.60;;;;;;;-141.50;100.00;63355.56;5010221;28;20088;-79
2024/03/08 09:38:42;;;;;;;34.78;14.70;;;;;;;-141.50;100.00;63355.56;4995916;28;20057;-78
2024/03/08 09:41:10;;;;;;;32.95;14.35;;;;;;;-141.50;100.00;63355.56;5009623;28;20062;-81
2024/03/08 09:43:37;;;;;;;32.13;13.80;;;;;;;-141.50;100.00;63355.56;4995620;28;20631;-81
2024/03/08 09:46:06;;;;;;;32.42;14.15;;;;;;;-141.50;100.00;63355.56;4991991;28;20499;-80
2024/03/08 09:48:34;;;;;;;33.53;13.98;;;;;;;-141.50;100.00;63355.56;4996704;28;20066;-82
2024/03/08 09:51:01;;;;;;;38.60;13.88;;;;;;;-141.50;100.00;63355.56;5009235;28;20542;-81
2024/03/08 09:53:28;;;;;;;29.98;13.13;;;;;;;-141.50;100.00;63355.56;4999689;28;20053;-80
2024/03/08 09:55:55;;;;;;;34.15;14.23;;;;;;;-141.50;100.00;63355.56;5009046;28;20108;-80
2024/03/08 09:58:42;;;;;;;33.08;14.40;;;;;;;-141.50;100.00;63355.56;4975250;28;20681;-80
2024/03/08 10:01:09;;;;;;;30.48;13.63;;;;;;;-141.50;100.00;63355.56;5008308;28;20107;-79
2024/03/08 10:03:35;;;;;;;29.85;13.65;;;;;;;-141.50;100.00;63355.56;5019282;28;20065;-79
2024/03/08 10:06:02;;;;;;;33.10;13.35;;;;;;;-141.50;100.00;63355.56;4992079;28;20046;-79
2024/03/08 10:08:29;;;;;;;29.77;12.55;;;;;;;-141.50;100.00;63355.56;5008551;28;20150;-81
2024/03/08 10:10:59;;;;;;;30.70;13.57;;;;;;;-141.50;100.00;63355.56;4990483;28;20073;-79
2024/03/08 10:13:27;;;;;;;33.17;13.60;;;;;;;-141.50;100.00;63355.56;4992183;28;20058;-80
2024/03/08 10:15:54;;;;;;;26.10;12.48;;;;;;;-141.50;100.00;63355.56;4989509;28;20065;-81
2024/03/08 10:18:22;;;;;;;29.20;13.10;;;;;;;-141.50;100.00;63355.56;5008941;28;20062;-80
2024/03/08 10:21:10;;;;;;;28.63;12.40;;;;;;;-141.50;100.00;63355.56;5018449;28;20054;-77
2024/03/08 10:23:37;;;;;;;29.30;11.98;;;;;;;-141.50;100.00;63355.56;5020555;28;20681;-77
2024/03/08 10:26:14;;;;;;;29.67;13.43;;;;;;;-141.50;100.00;63355.56;5014650;28;20125;-79
2024/03/08 10:28:47;;;;;;;27.27;11.50;;;;;;;-141.50;100.00;63355.56;4975287;28;21085;-77
2024/03/08 10:31:15;;;;;;;26.55;12.57;;;;;;;-141.50;100.00;63355.56;4990956;28;20109;-78
2024/03/08 10:33:49;;;;;;;23.35;11.05;;;;;;;-141.50;100.00;63355.56;4990473;28;20053;-78
2024/03/08 10:36:16;;;;;;;30.05;13.20;;;;;;;-141.50;100.00;63355.56;5008770;28;20416;-77
2024/03/08 10:38:46;;;;;;;27.80;11.75;;;;;;;-141.50;100.00;63355.56;5012837;28;20054;-77
2024/03/08 10:41:16;;;;;;;25.90;11.93;;;;;;;-141.50;100.00;63355.56;5008163;28;20061;-77
2024/03/08 10:44:06;;;;;;;27.20;12.20;;;;;;;-141.50;100.00;63355.56;5004986;28;20060;-78
2024/03/08 10:46:54;;;;;;;28.40;12.18;;;;;;;-141.50;100.00;63355.56;5004992;28;20273;-80
2024/03/08 10:49:27;;;;;;;26.95;11.52;;;;;;;-141.50;100.00;63355.56;4986728;28;20034;-79
2024/03/08 10:51:54;;;;;;;25.83;11.13;;;;;;;-141.50;100.00;63355.56;5003856;28;20621;-78
2024/03/08 10:54:22;;;;;;;23.27;11.45;;;;;;;-141.50;100.00;63355.56;4978824;28;20397;-78
2024/03/08 10:56:50;;;;;;;24.85;11.60;;;;;;;-141.50;100.00;63355.56;4984992;28;20124;-81
2024/03/08 10:59:19;;;;;;;22.10;11.15;;;;;;;-141.50;100.00;63355.56;5008691;28;20528;-79
2024/03/08 11:01:46;;;;;;;23.55;10.57;;;;;;;-141.50;100.00;63355.56;5012540;28;20050;-80